Dorchester, Iowa
Current Conditions -  °F | °C
As of 5:15 PM on Friday 31 Oct 2014 (Local Time) from KDEH Reporting Station
Clear Clear  
Wind Chill: -1°   Ceiling: Unl
Heat Index:   Visibility: 10mi
Dew Point: -8°   Wind: 10mph
Humidity: 45%   Direction: 350°N
Pressure: 30.42"   Gusts: NA
Location:  43.48°N, 91.51°W
Report Text: KDEH 312215Z AUTO 35009KT 10SM CLR 03/M08 A3042 RMK AO2
Loading
Personal Weather Stations






























Interactive Weather Map
Tropical Storm Tracking
New forecast layout! Learn more

10-Day Weather Forecast

Advertisements
Track Severe Weather on mobile